Terminal Aerodrome Forecast
Issued by NWS

Home | Current Version | Previous Version | Graphics & Text | Print | Product List | Glossary On
Versions: 1 2 3 4 5 6 7 8 9 10 11 12 13 14 15 16 17 18 19 20 21
623
FTUS43 KGRB 230536
TAFCWA
TAF
KCWA 230536Z 2306/2406 VRB03KT P6SM SCT050 SCT100
     FM231200 VRB03KT P6SM VCSH OVC050
     FM231500 05005KT 6SM BR VCSH OVC025 PROB30 2315/2321 4SM -RA BR
      OVC015
     FM232100 04009KT 5SM -RA BR OVC015
     FM240500 03008KT 6SM BR BKN015 OVC040=

USA.gov is the U.S. government's official web portal to all federal, state and local government web resources and services.